createdAt,value
2023-03-15T00:00:12.490Z,1.60
2023-03-15T00:02:40.035Z,1.20
2023-03-15T00:05:10.161Z,1.53
2023-03-15T00:07:39.863Z,1.33
2023-03-15T00:10:07.488Z,1.50
2023-03-15T00:12:34.529Z,1.20
2023-03-15T00:15:02.696Z,0.97
2023-03-15T00:17:34.805Z,1.60
2023-03-15T00:20:04.963Z,1.30
2023-03-15T00:22:31.920Z,1.40
2023-03-15T00:24:58.854Z,1.90
2023-03-15T00:27:25.913Z,2.50
2023-03-15T00:29:52.760Z,2.27
2023-03-15T00:32:19.742Z,1.30
2023-03-15T00:34:49.246Z,1.47
2023-03-15T00:37:19.763Z,1.97
2023-03-15T00:39:48.420Z,1.60
2023-03-15T00:42:15.977Z,1.60
2023-03-15T00:44:45.776Z,1.83
2023-03-15T00:47:15.048Z,1.30
2023-03-15T00:49:42.130Z,2.03
2023-03-15T00:52:13.592Z,1.50
2023-03-15T00:54:52.199Z,2.40
2023-03-15T00:57:19.361Z,1.60
2023-03-15T00:59:48.674Z,1.93
2023-03-15T01:02:15.528Z,2.23
2023-03-15T01:04:44.887Z,1.63
2023-03-15T01:07:12.163Z,2.23
2023-03-15T01:09:39.115Z,2.50
2023-03-15T01:12:06.611Z,2.17
2023-03-15T01:14:37.180Z,1.97
2023-03-15T01:17:04.077Z,2.00
2023-03-15T01:19:33.102Z,2.80
2023-03-15T01:21:59.983Z,2.30
2023-03-15T01:24:26.914Z,2.13
2023-03-15T01:26:54.038Z,2.50
2023-03-15T01:29:20.918Z,2.17
2023-03-15T01:31:47.892Z,2.30
2023-03-15T01:34:14.820Z,2.00
2023-03-15T01:36:44.216Z,2.10
2023-03-15T01:39:13.563Z,2.20
2023-03-15T01:41:40.440Z,2.10
2023-03-15T01:44:16.071Z,1.77
2023-03-15T01:46:48.260Z,1.90
2023-03-15T01:49:35.212Z,1.57
2023-03-15T01:52:16.037Z,2.23
2023-03-15T01:54:50.102Z,1.83
2023-03-15T01:57:49.835Z,1.93
2023-03-15T02:00:20.384Z,1.87
2023-03-15T02:02:53.568Z,2.03
2023-03-15T02:05:28.586Z,1.93
2023-03-15T02:07:55.966Z,2.10
2023-03-15T02:10:41.580Z,2.50
2023-03-15T02:13:08.775Z,2.00
2023-03-15T02:15:35.929Z,2.77
2023-03-15T02:18:05.328Z,2.33
2023-03-15T02:20:41.884Z,2.27
2023-03-15T02:23:18.770Z,2.43
2023-03-15T02:26:10.201Z,2.37
2023-03-15T02:28:37.869Z,2.20
2023-03-15T02:31:07.378Z,2.17
2023-03-15T02:33:45.503Z,2.57
2023-03-15T02:36:19.301Z,2.23
2023-03-15T02:38:46.670Z,3.13
2023-03-15T02:41:18.079Z,2.57
2023-03-15T02:43:52.504Z,3.03
2023-03-15T02:46:19.769Z,3.20
2023-03-15T02:48:51.643Z,3.00
2023-03-15T02:51:24.895Z,2.90
2023-03-15T02:53:51.978Z,2.47
2023-03-15T02:56:18.859Z,3.00
2023-03-15T02:58:45.876Z,2.67
2023-03-15T03:01:17.677Z,2.70
2023-03-15T03:03:49.974Z,2.70
2023-03-15T03:06:20.919Z,2.47
2023-03-15T03:08:48.044Z,2.50
2023-03-15T03:11:16.464Z,3.03
2023-03-15T03:13:43.907Z,2.60
2023-03-15T03:16:11.312Z,2.70
2023-03-15T03:18:39.000Z,2.33
2023-03-15T03:21:09.451Z,2.90
2023-03-15T03:23:39.385Z,2.73
2023-03-15T03:26:20.041Z,3.70
2023-03-15T03:28:48.792Z,3.30
2023-03-15T03:31:27.528Z,3.60
2023-03-15T03:33:56.902Z,3.17
2023-03-15T03:36:24.939Z,3.90
2023-03-15T03:38:53.779Z,4.33
2023-03-15T03:41:21.422Z,3.97
2023-03-15T03:43:50.949Z,3.47
2023-03-15T03:46:17.947Z,3.43
2023-03-15T03:48:45.074Z,3.50
2023-03-15T03:51:14.079Z,3.60
2023-03-15T03:53:41.210Z,4.07
2023-03-15T03:56:09.065Z,4.33
2023-03-15T03:58:38.199Z,3.90
2023-03-15T04:01:05.901Z,3.47
2023-03-15T04:03:33.482Z,3.50
2023-03-15T04:06:01.859Z,3.73
2023-03-15T04:08:31.795Z,4.33
2023-03-15T04:10:58.735Z,4.00
2023-03-15T04:13:26.014Z,3.70
2023-03-15T04:15:57.472Z,3.77
2023-03-15T04:18:24.982Z,4.10
2023-03-15T04:20:54.639Z,5.90
2023-03-15T04:23:25.025Z,4.03
2023-03-15T04:25:55.253Z,6.03
2023-03-15T04:28:22.867Z,4.07
2023-03-15T04:30:52.597Z,4.43
2023-03-15T04:33:19.522Z,3.53
2023-03-15T04:35:48.944Z,4.27
2023-03-15T04:38:15.956Z,4.30
2023-03-15T04:40:42.998Z,3.73
2023-03-15T04:43:10.224Z,4.77
2023-03-15T04:45:41.779Z,2.93
2023-03-15T04:48:08.780Z,4.43
2023-03-15T04:50:35.784Z,3.73
2023-03-15T04:53:02.754Z,3.60
2023-03-15T04:55:29.795Z,4.07
2023-03-15T04:57:58.800Z,4.20
2023-03-15T05:00:25.737Z,4.33
2023-03-15T05:02:55.079Z,3.37
2023-03-15T05:05:29.455Z,4.23
2023-03-15T05:07:59.472Z,3.40
2023-03-15T05:10:26.614Z,4.00
2023-03-15T05:12:53.608Z,3.53
2023-03-15T05:15:20.660Z,3.13
2023-03-15T05:17:48.873Z,3.30
2023-03-15T05:20:16.685Z,3.57
2023-03-15T05:22:45.764Z,4.10
2023-03-15T05:25:12.867Z,3.80
2023-03-15T05:27:42.511Z,3.83
2023-03-15T05:30:10.675Z,4.13
2023-03-15T05:32:44.591Z,2.90
2023-03-15T05:35:12.817Z,3.27
2023-03-15T05:37:43.486Z,3.43
2023-03-15T05:40:13.514Z,3.53
2023-03-15T05:42:41.282Z,3.50
2023-03-15T05:45:09.043Z,3.37
2023-03-15T05:47:38.550Z,3.67
2023-03-15T05:50:06.216Z,3.90
2023-03-15T05:52:37.963Z,3.40
2023-03-15T05:55:05.410Z,3.80
2023-03-15T05:57:34.897Z,2.77
2023-03-15T06:00:07.192Z,3.43
2023-03-15T06:02:38.826Z,3.60
2023-03-15T06:05:06.502Z,3.70
2023-03-15T06:07:36.313Z,3.83
2023-03-15T06:10:06.582Z,4.17
2023-03-15T06:12:33.597Z,4.17
2023-03-15T06:15:00.642Z,3.57
2023-03-15T06:17:32.527Z,3.77
2023-03-15T06:20:05.076Z,3.70
2023-03-15T06:22:32.359Z,4.33
2023-03-15T06:24:59.632Z,3.07
2023-03-15T06:27:29.093Z,3.17
2023-03-15T06:29:57.393Z,4.07
2023-03-15T06:32:24.434Z,3.70
2023-03-15T06:34:52.263Z,3.30
2023-03-15T06:37:28.824Z,3.60
2023-03-15T06:40:01.333Z,3.70
2023-03-15T06:42:28.306Z,3.60
2023-03-15T06:44:57.377Z,3.30
2023-03-15T06:47:24.302Z,3.40
2023-03-15T06:49:51.295Z,3.30
2023-03-15T06:52:21.938Z,3.43
2023-03-15T06:54:51.032Z,2.93
2023-03-15T06:57:17.986Z,2.83
2023-03-15T06:59:44.833Z,3.00
2023-03-15T07:02:20.986Z,3.47
2023-03-15T07:04:48.132Z,2.60
2023-03-15T07:07:17.984Z,2.70
2023-03-15T07:09:44.950Z,2.53
2023-03-15T07:12:14.554Z,2.83
2023-03-15T07:14:41.451Z,2.47
2023-03-15T07:17:08.397Z,2.93
2023-03-15T07:19:37.311Z,2.10
2023-03-15T07:22:08.459Z,2.77
2023-03-15T07:24:35.404Z,2.33
2023-03-15T07:27:02.283Z,2.57
2023-03-15T07:29:32.258Z,2.30
2023-03-15T07:32:01.307Z,2.17
2023-03-15T07:34:30.585Z,2.20
2023-03-15T07:37:00.181Z,2.73
2023-03-15T07:39:27.117Z,2.37
2023-03-15T07:41:56.550Z,2.83
2023-03-15T07:44:23.561Z,2.40
2023-03-15T07:46:51.012Z,1.70
2023-03-15T07:49:20.540Z,2.13
2023-03-15T07:51:47.780Z,2.77
2023-03-15T07:54:17.730Z,2.20
2023-03-15T07:56:44.734Z,2.27
2023-03-15T07:59:11.841Z,2.37
2023-03-15T08:01:39.154Z,2.37
2023-03-15T08:04:06.111Z,1.63
2023-03-15T08:06:37.755Z,1.93
2023-03-15T08:09:05.817Z,2.27
2023-03-15T08:14:02.902Z,2.63
2023-03-15T08:16:29.841Z,3.10
2023-03-15T08:18:56.844Z,1.87
2023-03-15T08:21:25.928Z,2.00
2023-03-15T08:23:52.904Z,2.07
2023-03-15T08:26:20.098Z,2.00
2023-03-15T08:28:47.081Z,2.07
2023-03-15T08:31:14.202Z,1.20
2023-03-15T08:33:43.795Z,5.73
2023-03-15T08:36:11.165Z,2.03
2023-03-15T08:38:41.767Z,1.10
2023-03-15T08:41:08.669Z,1.30
2023-03-15T08:43:35.680Z,0.80
2023-03-15T08:46:02.644Z,1.63
2023-03-15T08:48:32.199Z,1.00
2023-03-15T08:51:06.979Z,1.10
2023-03-15T08:53:37.778Z,2.00
2023-03-15T08:56:08.063Z,1.50
2023-03-15T08:58:37.996Z,1.40
2023-03-15T09:01:05.158Z,1.60
2023-03-15T09:03:32.834Z,1.20
2023-03-15T09:06:00.255Z,1.23
2023-03-15T09:08:28.269Z,1.60
2023-03-15T09:10:58.966Z,1.83
2023-03-15T09:13:26.282Z,1.97
2023-03-15T09:15:55.508Z,2.10
2023-03-15T09:18:23.789Z,1.23
2023-03-15T09:20:52.949Z,1.20
2023-03-15T09:23:19.839Z,1.60
2023-03-15T09:25:49.839Z,1.30
2023-03-15T09:28:16.921Z,1.83
2023-03-15T09:30:43.863Z,1.27
2023-03-15T09:33:14.620Z,1.60
2023-03-15T09:35:46.334Z,1.93
2023-03-15T09:38:13.179Z,1.80
2023-03-15T09:40:47.611Z,1.67
2023-03-15T09:43:31.824Z,2.70
2023-03-15T09:46:32.968Z,2.07
2023-03-15T09:49:34.058Z,2.00
2023-03-15T09:52:13.498Z,1.70
2023-03-15T09:55:11.366Z,2.23
2023-03-15T09:58:05.466Z,1.90
2023-03-15T10:00:50.886Z,1.87
2023-03-15T10:03:45.254Z,1.90
2023-03-15T10:06:30.286Z,2.40
2023-03-15T10:09:00.523Z,2.53
2023-03-15T10:11:59.324Z,2.40
2023-03-15T10:14:51.170Z,2.30
2023-03-15T10:17:42.691Z,2.00
2023-03-15T10:20:30.076Z,2.10
2023-03-15T10:23:28.646Z,1.73
2023-03-15T10:25:58.196Z,2.10
2023-03-15T10:28:25.573Z,1.80
2023-03-15T10:30:53.095Z,1.40
2023-03-15T10:33:32.040Z,1.63
2023-03-15T10:36:11.323Z,2.40
2023-03-15T10:38:39.386Z,1.70
2023-03-15T10:41:15.283Z,1.77
2023-03-15T10:44:00.474Z,2.57
2023-03-15T10:46:28.060Z,1.60
2023-03-15T10:49:12.073Z,1.27
2023-03-15T10:51:50.718Z,2.07
2023-03-15T10:54:24.187Z,1.90
2023-03-15T10:57:15.826Z,1.10
2023-03-15T11:00:07.072Z,2.60
2023-03-15T11:02:37.363Z,2.03
2023-03-15T11:05:10.291Z,2.23
2023-03-15T11:07:37.434Z,1.77
2023-03-15T11:10:07.082Z,1.70
2023-03-15T11:12:40.968Z,1.60
2023-03-15T11:15:15.857Z,2.50
2023-03-15T11:17:50.668Z,1.47
2023-03-15T11:20:31.899Z,1.87
2023-03-15T11:23:03.280Z,1.33
2023-03-15T11:25:34.270Z,1.60
2023-03-15T11:28:01.394Z,1.30
2023-03-15T11:30:31.464Z,1.23
2023-03-15T11:33:08.515Z,1.47
2023-03-15T11:35:48.401Z,1.10
2023-03-15T11:38:37.796Z,0.97
2023-03-15T11:41:56.728Z,1.40
2023-03-15T11:44:50.113Z,1.63
2023-03-15T11:47:54.257Z,1.43
2023-03-15T11:50:21.492Z,2.20
2023-03-15T11:52:54.586Z,1.60
2023-03-15T11:55:27.876Z,2.00
2023-03-15T11:58:30.981Z,2.47
2023-03-15T12:01:06.975Z,1.40
2023-03-15T12:03:43.461Z,2.07
2023-03-15T12:06:16.268Z,1.43
2023-03-15T12:08:52.997Z,2.00
2023-03-15T12:11:22.954Z,1.70
2023-03-15T12:14:01.161Z,2.03
2023-03-15T12:16:42.044Z,2.07
2023-03-15T12:19:21.080Z,1.90
2023-03-15T12:21:52.258Z,1.50
2023-03-15T12:24:38.518Z,1.37
2023-03-15T12:27:18.618Z,1.93
2023-03-15T12:29:47.525Z,1.00
2023-03-15T12:32:21.086Z,1.40
2023-03-15T12:34:58.371Z,2.30
2023-03-15T12:37:47.828Z,2.20
2023-03-15T12:40:22.458Z,2.10
2023-03-15T12:42:49.581Z,1.80
2023-03-15T12:45:16.648Z,1.90
2023-03-15T12:47:52.627Z,1.47
2023-03-15T12:50:48.015Z,1.80
2023-03-15T12:53:19.809Z,1.27
2023-03-15T12:55:47.655Z,1.50
2023-03-15T12:58:22.198Z,1.80
2023-03-15T13:00:54.450Z,1.27
2023-03-15T13:03:24.195Z,1.90
2023-03-15T13:06:29.176Z,1.13
2023-03-15T13:09:37.276Z,1.20
2023-03-15T13:12:35.019Z,1.47
2023-03-15T13:15:14.816Z,1.47
2023-03-15T13:17:58.768Z,1.40
2023-03-15T13:21:06.028Z,1.33
2023-03-15T13:23:34.422Z,1.30
2023-03-15T13:26:23.473Z,1.07
2023-03-15T13:28:59.616Z,0.93
2023-03-15T13:31:31.566Z,1.23
2023-03-15T13:34:15.052Z,0.90
2023-03-15T13:36:49.229Z,1.10
2023-03-15T13:39:26.000Z,0.83
2023-03-15T13:42:20.593Z,1.40
2023-03-15T13:44:47.532Z,1.20
2023-03-15T13:47:24.343Z,1.63
2023-03-15T13:49:56.782Z,1.63
2023-03-15T13:52:23.794Z,2.30
2023-03-15T13:54:53.970Z,1.40
2023-03-15T13:57:23.594Z,2.93
2023-03-15T13:59:54.453Z,1.67
2023-03-15T14:02:27.815Z,1.30
2023-03-15T14:05:05.443Z,1.20
2023-03-15T14:07:46.665Z,1.07
2023-03-15T14:10:27.315Z,1.83
2023-03-15T14:12:58.267Z,1.40
2023-03-15T14:15:44.325Z,1.60
2023-03-15T14:18:11.232Z,1.57
2023-03-15T14:20:45.254Z,1.73
2023-03-15T14:23:19.156Z,1.27
2023-03-15T14:26:11.594Z,2.33
2023-03-15T14:28:39.980Z,1.50
2023-03-15T14:31:27.738Z,2.03
2023-03-15T14:34:08.041Z,1.23
2023-03-15T14:36:43.938Z,1.50
2023-03-15T14:39:25.815Z,1.53
2023-03-15T14:41:57.831Z,1.87
2023-03-15T14:44:25.002Z,1.33
2023-03-15T14:46:52.434Z,1.63
2023-03-15T14:49:29.620Z,1.37
2023-03-15T14:52:03.604Z,1.83
2023-03-15T14:54:31.831Z,2.37
2023-03-15T14:56:58.775Z,1.27
2023-03-15T14:59:25.945Z,1.50
2023-03-15T15:02:01.170Z,2.20
2023-03-15T15:04:33.813Z,1.63
2023-03-15T15:07:03.222Z,1.30
2023-03-15T15:09:32.919Z,1.67
2023-03-15T15:11:59.869Z,1.73
2023-03-15T15:14:29.849Z,2.00
2023-03-15T15:16:56.993Z,1.50
2023-03-15T15:19:24.070Z,2.00
2023-03-15T15:21:51.684Z,1.00
2023-03-15T15:24:24.201Z,1.37
2023-03-15T15:26:51.255Z,1.43
2023-03-15T15:29:21.447Z,1.30
2023-03-15T15:31:48.362Z,1.77
2023-03-15T15:34:15.647Z,1.53
2023-03-15T15:36:46.152Z,1.20
2023-03-15T15:39:31.489Z,1.10
2023-03-15T15:42:00.993Z,1.13
2023-03-15T15:44:28.350Z,1.50
2023-03-15T15:46:55.450Z,1.60
2023-03-15T15:49:25.193Z,2.80
2023-03-15T15:51:52.565Z,2.13
2023-03-15T15:54:26.427Z,1.70
2023-03-15T15:57:06.338Z,1.20
2023-03-15T15:59:38.758Z,1.53
2023-03-15T16:02:17.370Z,1.10
2023-03-15T16:04:44.511Z,1.90
2023-03-15T16:07:15.186Z,1.77
2023-03-15T16:09:44.225Z,1.83
2023-03-15T16:12:27.219Z,1.77
2023-03-15T16:14:54.874Z,1.57
2023-03-15T16:17:25.595Z,1.90
2023-03-15T16:19:55.191Z,2.30
2023-03-15T16:22:27.120Z,2.17
2023-03-15T16:24:57.146Z,1.90
2023-03-15T16:27:26.892Z,2.67
2023-03-15T16:29:56.052Z,2.67
2023-03-15T16:32:42.888Z,2.30
2023-03-15T16:35:17.656Z,1.80
2023-03-15T16:37:46.582Z,2.40
2023-03-15T16:40:23.170Z,1.93
2023-03-15T16:42:50.691Z,2.10
2023-03-15T16:45:20.350Z,2.30
2023-03-15T16:47:49.714Z,2.80
2023-03-15T16:50:19.891Z,2.90
2023-03-15T16:52:58.875Z,2.23
2023-03-15T16:55:33.021Z,2.67
2023-03-15T16:58:13.934Z,2.80
2023-03-15T17:00:44.330Z,2.57
2023-03-15T17:03:14.537Z,2.40
2023-03-15T17:05:45.612Z,2.30
2023-03-15T17:08:20.058Z,2.60
2023-03-15T17:10:49.974Z,2.80
2023-03-15T17:13:28.492Z,2.93
2023-03-15T17:15:57.725Z,2.67
2023-03-15T17:18:24.623Z,2.70
2023-03-15T17:20:51.784Z,5.90
2023-03-15T17:23:21.850Z,4.23
2023-03-15T17:25:49.484Z,4.07
2023-03-15T17:28:16.774Z,3.80
2023-03-15T17:30:43.701Z,4.30
2023-03-15T17:33:11.744Z,5.10
2023-03-15T17:35:48.817Z,5.63
2023-03-15T17:38:21.778Z,5.50
2023-03-15T17:40:49.211Z,6.17
2023-03-15T17:43:17.266Z,6.67
2023-03-15T17:45:44.540Z,5.03
2023-03-15T17:48:11.950Z,7.03
2023-03-15T17:50:41.453Z,5.10
2023-03-15T17:53:18.090Z,4.80
2023-03-15T17:55:53.460Z,5.07
2023-03-15T17:58:23.072Z,5.80
2023-03-15T18:00:52.597Z,7.90
2023-03-15T18:03:19.593Z,6.30
2023-03-15T18:05:47.327Z,6.20
2023-03-15T18:08:21.365Z,4.50
2023-03-15T18:10:50.643Z,5.30
2023-03-15T18:13:21.495Z,5.40
2023-03-15T18:15:49.777Z,5.70
2023-03-15T18:18:19.374Z,5.30
2023-03-15T18:20:49.601Z,5.37
2023-03-15T18:23:17.684Z,5.30
2023-03-15T18:25:48.249Z,5.30
2023-03-15T18:28:15.382Z,5.07
2023-03-15T18:30:44.168Z,4.63
2023-03-15T18:33:16.069Z,4.40
2023-03-15T18:35:46.006Z,5.10
2023-03-15T18:38:13.076Z,5.27
2023-03-15T18:40:39.929Z,6.50
2023-03-15T18:43:06.966Z,7.00
2023-03-15T18:45:37.150Z,6.33
2023-03-15T18:48:07.253Z,6.50
2023-03-15T18:50:35.333Z,6.43
2023-03-15T18:53:06.065Z,6.63
2023-03-15T18:55:33.708Z,6.20
2023-03-15T18:58:03.129Z,7.33
2023-03-15T19:00:35.924Z,7.60
2023-03-15T19:03:05.101Z,7.40
2023-03-15T19:05:37.249Z,6.90
2023-03-15T19:08:04.335Z,7.30
2023-03-15T19:10:31.360Z,7.90
2023-03-15T19:12:58.220Z,8.77
2023-03-15T19:15:28.106Z,7.27
2023-03-15T19:17:57.299Z,7.90
2023-03-15T19:20:26.812Z,7.13
2023-03-15T19:22:55.997Z,7.50
2023-03-15T19:25:22.983Z,7.13
2023-03-15T19:27:49.990Z,10.57
2023-03-15T19:30:21.167Z,9.80
2023-03-15T19:32:49.939Z,8.80
2023-03-15T19:35:23.182Z,8.00
2023-03-15T19:37:50.429Z,7.20
2023-03-15T19:40:20.767Z,7.50
2023-03-15T19:42:51.261Z,7.03
2023-03-15T19:45:20.831Z,8.70
2023-03-15T19:47:47.825Z,7.70
2023-03-15T19:50:15.512Z,7.73
2023-03-15T19:52:48.381Z,7.50
2023-03-15T19:55:22.458Z,6.50
2023-03-15T19:57:49.353Z,6.87
2023-03-15T20:00:20.431Z,5.00
2023-03-15T20:02:52.160Z,5.00
2023-03-15T20:05:23.229Z,5.07
2023-03-15T20:07:54.281Z,6.00
2023-03-15T20:10:24.412Z,5.20
2023-03-15T20:12:59.175Z,4.53
2023-03-15T20:15:29.969Z,4.80
2023-03-15T20:17:59.081Z,5.53
2023-03-15T20:20:25.968Z,5.90
2023-03-15T20:22:52.859Z,5.40
2023-03-15T20:25:20.564Z,5.40
2023-03-15T20:27:47.898Z,5.47
2023-03-15T20:30:17.317Z,5.17
2023-03-15T20:32:44.613Z,5.43
2023-03-15T20:35:12.311Z,5.80
2023-03-15T20:37:42.975Z,6.30
2023-03-15T20:40:13.364Z,6.50
2023-03-15T20:42:41.283Z,7.70
2023-03-15T20:45:12.859Z,6.80
2023-03-15T20:47:41.328Z,7.77
2023-03-15T20:50:10.885Z,8.20
2023-03-15T20:52:43.420Z,10.60
2023-03-15T20:55:16.012Z,8.73
2023-03-15T20:57:45.773Z,7.30
2023-03-15T21:00:23.071Z,8.23
2023-03-15T21:02:50.469Z,8.67
2023-03-15T21:05:18.033Z,8.27
2023-03-15T21:07:45.846Z,7.53
2023-03-15T21:10:13.744Z,7.60
2023-03-15T21:12:40.802Z,7.97
2023-03-15T21:15:08.367Z,8.33
2023-03-15T21:17:35.306Z,7.23
2023-03-15T21:20:02.216Z,6.80
2023-03-15T21:22:34.552Z,6.60
2023-03-15T21:25:02.082Z,6.27
2023-03-15T21:27:34.185Z,7.37
2023-03-15T21:30:01.345Z,6.23
2023-03-15T21:32:28.464Z,6.30
2023-03-15T21:34:58.503Z,6.63
2023-03-15T21:37:25.407Z,6.60
2023-03-15T21:39:54.090Z,6.77
2023-03-15T21:42:21.004Z,6.80
2023-03-15T21:44:50.320Z,8.07
2023-03-15T21:47:18.007Z,6.17
2023-03-15T21:49:45.049Z,6.90
2023-03-15T21:52:16.264Z,7.37
2023-03-15T21:54:44.890Z,7.70
2023-03-15T21:57:14.205Z,7.20
2023-03-15T21:59:45.707Z,7.17
2023-03-15T22:02:14.260Z,7.93
2023-03-15T22:04:46.524Z,6.90
2023-03-15T22:07:13.544Z,7.73
2023-03-15T22:09:41.871Z,8.10
2023-03-15T22:12:09.554Z,7.40
2023-03-15T22:14:41.233Z,7.20
2023-03-15T22:17:08.525Z,7.20
2023-03-15T22:19:35.678Z,7.60
2023-03-15T22:22:05.161Z,7.37
2023-03-15T22:24:34.024Z,6.20
2023-03-15T22:27:01.941Z,6.80
2023-03-15T22:29:29.768Z,6.50
2023-03-15T22:31:56.691Z,6.40
2023-03-15T22:34:27.173Z,6.93
2023-03-15T22:36:54.299Z,6.50
2023-03-15T22:39:24.138Z,6.20
2023-03-15T22:41:51.032Z,6.10
2023-03-15T22:44:20.562Z,5.90
2023-03-15T22:46:50.167Z,5.47
2023-03-15T22:49:17.045Z,6.23
2023-03-15T22:51:46.197Z,5.40
2023-03-15T22:54:13.223Z,5.43
2023-03-15T22:56:43.254Z,4.87
2023-03-15T22:59:12.366Z,5.10
2023-03-15T23:01:44.013Z,5.50
2023-03-15T23:04:16.469Z,5.00
2023-03-15T23:06:43.481Z,5.10
2023-03-15T23:09:11.028Z,5.10
2023-03-15T23:11:37.971Z,4.80
2023-03-15T23:14:09.539Z,5.10
2023-03-15T23:16:36.457Z,5.20
2023-03-15T23:19:08.827Z,5.53
2023-03-15T23:21:36.087Z,5.70
2023-03-15T23:24:03.050Z,5.07
2023-03-15T23:26:29.961Z,4.23
2023-03-15T23:28:57.249Z,5.90
2023-03-15T23:31:26.766Z,4.70
2023-03-15T23:33:53.686Z,5.20
2023-03-15T23:36:20.505Z,4.33
2023-03-15T23:38:47.396Z,5.00
2023-03-15T23:41:14.377Z,4.60
2023-03-15T23:43:41.639Z,3.97
2023-03-15T23:46:14.439Z,3.70
2023-03-15T23:48:42.237Z,3.63
2023-03-15T23:51:12.648Z,3.80
2023-03-15T23:53:39.752Z,3.93
2023-03-15T23:56:07.338Z,3.53
2023-03-15T23:58:34.280Z,3.47
